Time;durP1;ratioP1;P1;durP2;ratioP2;P2;SDS_P1;SDS_P2;PMS_P1;PMS_P2;Temp;Humidity;BMP_temperature;BMP_pressure;BME280_temperature;BME280_humidity;BME280_pressure;Samples;Min_cycle;Max_cycle;Signal;HPM_P1;HPM_P2
2022/09/04 00:01:28;;;;;;;1.40;0.80;;;;;;;19.10;69.42;101200.16;20723750;28;20042;-73
2022/09/04 00:11:40;;;;;;;0.98;0.70;;;;;;;19.08;69.48;101212.91;20690618;28;20054;-73
2022/09/04 00:21:56;;;;;;;1.20;0.85;;;;;;;19.08;69.56;101223.72;20752738;28;20046;-73
2022/09/04 00:32:12;;;;;;;;;;;;;;;19.07;69.09;101222.84;20803880;28;20049;-73
2022/09/04 00:42:44;;;;;;;0.80;0.80;;;;;;;19.06;69.38;101229.22;20738317;28;19964;-73
2022/09/04 00:53:14;;;;;;;1.42;0.95;;;;;;;19.05;69.38;101240.19;20803280;28;20041;-73
2022/09/04 01:03:34;;;;;;;1.08;0.77;;;;;;;18.88;69.20;101218.19;20798304;28;20041;-73
2022/09/04 01:13:41;;;;;;;1.50;0.90;;;;;;;18.95;69.28;101240.09;20801296;28;20042;-73
2022/09/04 01:23:51;;;;;;;0.85;0.70;;;;;;;18.88;69.20;101245.16;20767940;28;20034;-73
2022/09/04 01:34:09;;;;;;;2.38;1.10;;;;;;;19.02;69.08;101279.06;20718780;28;20042;-73
2022/09/04 01:44:11;;;;;;;1.50;0.98;;;;;;;19.02;69.23;101283.63;20734947;28;20050;-73
2022/09/04 02:06:30;;;;;;;1.08;0.98;;;;;;;18.98;69.00;101288.44;20714724;28;20054;-73
2022/09/04 02:17:09;;;;;;;1.35;0.90;;;;;;;18.99;68.92;101290.13;20718645;28;20056;-73
2022/09/04 02:27:33;;;;;;;1.60;1.00;;;;;;;18.95;68.79;101297.59;20775568;28;20049;-73
2022/09/04 02:37:54;;;;;;;1.20;1.00;;;;;;;18.96;68.86;101302.00;20795144;28;20057;-73
2022/09/04 02:48:27;;;;;;;2.58;1.13;;;;;;;18.96;68.72;101306.56;20784824;28;20045;-73
2022/09/04 02:58:50;;;;;;;1.75;1.05;;;;;;;18.95;69.00;101299.44;20632559;28;20499;-73
2022/09/04 03:09:00;;;;;;;2.90;0.80;;;;;;;18.75;68.82;101276.91;20703499;28;20509;-73
2022/09/04 03:19:37;;;;;;;2.30;1.00;;;;;;;18.95;68.79;101316.47;20716365;28;20491;-73
2022/09/04 03:29:51;;;;;;;1.67;1.17;;;;;;;18.94;68.87;101319.31;20707939;28;20414;-73
2022/09/04 03:40:18;;;;;;;1.85;1.30;;;;;;;18.93;69.03;101323.84;20791042;28;20049;-73
2022/09/04 03:50:31;;;;;;;1.60;1.05;;;;;;;18.92;68.88;101329.41;20752860;28;20045;-73
2022/09/04 04:00:42;;;;;;;1.65;1.08;;;;;;;18.87;68.76;101329.78;20792828;28;20073;-73
2022/09/04 04:10:59;;;;;;;1.42;1.27;;;;;;;18.91;68.60;101344.72;20793857;28;20426;-73
2022/09/04 04:21:10;;;;;;;1.48;1.38;;;;;;;18.91;68.67;101342.03;20792109;28;20053;-73
2022/09/04 04:31:13;;;;;;;1.45;1.10;;;;;;;18.90;68.54;101358.34;20794256;28;20504;-73
2022/09/04 04:41:29;;;;;;;1.67;1.02;;;;;;;18.90;68.68;101366.44;20802106;28;20049;-73
2022/09/04 04:51:38;;;;;;;1.65;1.30;;;;;;;18.90;68.40;101382.63;20767457;28;20097;-72
2022/09/04 05:01:58;;;;;;;1.65;1.17;;;;;;;18.72;68.35;101369.72;20803856;28;20041;-73
2022/09/04 05:12:15;;;;;;;2.67;1.20;;;;;;;18.87;68.31;101404.47;20801647;28;20552;-73
2022/09/04 05:22:22;;;;;;;2.75;1.20;;;;;;;18.75;68.13;101403.66;20741963;28;20041;-73
2022/09/04 05:33:01;;;;;;;1.38;1.10;;;;;;;18.88;68.35;101443.97;20684001;28;20597;-73
2022/09/04 05:43:29;;;;;;;2.00;1.23;;;;;;;18.87;68.26;101444.94;20710828;28;20061;-73
2022/09/04 05:53:45;;;;;;;1.65;1.40;;;;;;;18.87;68.36;101459.28;20696334;28;20060;-73
2022/09/04 06:04:21;;;;;;;2.55;1.50;;;;;;;18.87;68.04;101450.34;20694669;28;20073;-73
2022/09/04 06:14:28;;;;;;;1.57;1.27;;;;;;;18.88;67.89;101460.97;20772146;28;20407;-73
2022/09/04 06:24:55;;;;;;;2.97;1.40;;;;;;;18.78;67.63;101451.97;20702998;28;20549;-73
2022/09/04 06:35:30;;;;;;;2.10;1.40;;;;;;;18.93;67.29;101469.53;20688928;28;20072;-74
2022/09/04 06:46:01;;;;;;;2.53;1.60;;;;;;;18.96;66.78;101474.69;20761685;28;20053;-74
2022/09/04 06:56:32;;;;;;;1.70;1.23;;;;;;;18.98;66.69;101488.09;20776030;28;20087;-73
2022/09/04 07:06:53;;;;;;;1.45;1.23;;;;;;;18.99;66.52;101489.81;20777065;28;20049;-73
2022/09/04 07:17:13;;;;;;;2.95;1.67;;;;;;;19.00;66.63;101491.50;20794227;28;20052;-73
2022/09/04 07:27:37;;;;;;;2.83;1.30;;;;;;;19.01;66.44;101508.56;20776740;28;20509;-74
2022/09/04 07:38:05;;;;;;;1.10;1.00;;;;;;;19.02;66.50;101526.47;20792991;28;20053;-73
2022/09/04 07:48:20;;;;;;;1.80;1.23;;;;;;;19.01;66.54;101520.22;20671197;28;20050;-73
2022/09/04 07:58:36;;;;;;;1.55;1.30;;;;;;;18.82;66.40;101480.38;20709551;28;20046;-73
2022/09/04 08:08:42;;;;;;;1.88;1.20;;;;;;;19.05;66.47;101528.91;20697446;28;20057;-73
2022/09/04 08:19:14;;;;;;;2.00;1.30;;;;;;;19.06;66.82;101539.56;20776143;28;20073;-73
2022/09/04 08:29:25;;;;;;;2.63;1.30;;;;;;;19.08;67.22;101552.94;20684211;28;20049;-73
2022/09/04 08:39:30;;;;;;;2.25;1.30;;;;;;;19.08;67.36;101553.78;20727491;28;20042;-73
2022/09/04 08:49:57;;;;;;;2.40;1.40;;;;;;;19.10;67.41;101561.78;20743093;28;20045;-73
2022/09/04 09:00:11;;;;;;;1.67;1.30;;;;;;;19.10;67.66;101554.50;20671872;28;20119;-73
2022/09/04 09:10:28;;;;;;;1.80;1.23;;;;;;;19.11;67.65;101563.47;20720314;28;20053;-73
2022/09/04 09:21:12;;;;;;;1.83;1.25;;;;;;;19.11;68.05;101563.47;20766045;28;20077;-72
2022/09/04 09:31:15;;;;;;;1.52;1.20;;;;;;;19.11;68.24;101558.09;20743599;28;20057;-73
2022/09/04 09:42:01;;;;;;;1.40;1.00;;;;;;;19.09;68.09;101558.19;20782871;28;20053;-72
2022/09/04 09:52:06;;;;;;;1.77;1.30;;;;;;;19.09;68.24;101554.66;20634726;28;20073;-73
2022/09/04 10:02:24;;;;;;;1.77;1.37;;;;;;;19.10;68.40;101550.97;20787046;28;20387;-73
2022/09/04 10:12:38;;;;;;;1.30;1.13;;;;;;;19.09;68.85;101544.69;20711282;28;20049;-73
2022/09/04 10:23:09;;;;;;;1.35;1.08;;;;;;;19.09;68.82;101541.16;20771196;28;20114;-73
2022/09/04 10:33:25;;;;;;;1.02;0.93;;;;;;;19.09;68.82;101541.16;20699171;28;20058;-73
2022/09/04 10:44:20;;;;;;;1.38;1.10;;;;;;;19.10;69.14;101548.28;20695347;28;20069;-73
2022/09/04 10:54:38;;;;;;;2.08;1.10;;;;;;;19.10;69.35;101546.41;20653190;28;20074;-73
2022/09/04 11:04:51;;;;;;;1.30;1.20;;;;;;;19.10;69.33;101542.88;20673297;28;20077;-73
2022/09/04 11:15:18;;;;;;;1.88;1.20;;;;;;;19.10;69.44;101548.28;20674415;28;20514;-73
2022/09/04 11:26:08;;;;;;;1.85;1.20;;;;;;;19.12;69.32;101538.19;20688517;28;21385;-73
2022/09/04 11:36:22;;;;;;;2.03;1.20;;;;;;;19.20;69.41;101546.50;20702111;28;20057;-73
2022/09/04 11:46:36;;;;;;;1.17;0.90;;;;;;;19.26;69.50;101551.38;20680590;28;20443;-73
2022/09/04 11:56:52;;;;;;;1.33;0.90;;;;;;;19.28;69.54;101554.81;20698759;28;20048;-73
2022/09/04 12:07:22;;;;;;;1.23;0.90;;;;;;;19.32;69.63;101554.53;20771019;28;20506;-74
2022/09/04 12:17:39;;;;;;;0.75;0.75;;;;;;;19.34;69.58;101550.75;20782801;28;20049;-74
2022/09/04 12:28:01;;;;;;;1.38;1.08;;;;;;;19.36;69.66;101547.91;20793126;28;20053;-73
2022/09/04 12:38:39;;;;;;;1.52;1.27;;;;;;;19.36;69.77;101546.06;20759602;28;20054;-73
2022/09/04 12:49:04;;;;;;;1.20;1.10;;;;;;;19.38;70.26;101548.63;20651516;28;20506;-73
2022/09/04 12:59:24;;;;;;;0.80;0.80;;;;;;;19.40;70.81;101541.25;20658339;28;20403;-74
2022/09/04 13:09:43;;;;;;;1.33;1.05;;;;;;;19.44;70.99;101550.78;20764972;28;20050;-74
2022/09/04 13:20:09;;;;;;;2.05;1.20;;;;;;;19.46;71.30;101556.97;20704310;28;20046;-73
2022/09/04 13:30:20;;;;;;;1.40;1.00;;;;;;;19.49;71.74;101561.22;20664833;28;20054;-73
2022/09/04 13:40:22;;;;;;;1.52;0.98;;;;;;;19.50;71.63;101555.69;20652225;28;20053;-73
2022/09/04 13:50:31;;;;;;;1.65;1.17;;;;;;;19.51;72.04;101559.25;20716246;28;20155;-73
2022/09/04 14:00:34;;;;;;;2.55;1.10;;;;;;;19.51;72.35;101553.84;20731245;28;20050;-73
2022/09/04 14:11:14;;;;;;;2.90;1.25;;;;;;;19.53;72.62;101568.06;20679488;28;20054;-73
2022/09/04 14:21:32;;;;;;;1.80;1.00;;;;;;;19.52;72.65;101553.72;20672555;28;20054;-73
2022/09/04 14:31:44;;;;;;;1.48;1.10;;;;;;;19.54;72.75;101559.84;20739144;28;20073;-73
2022/09/04 14:42:10;;;;;;;1.90;0.93;;;;;;;19.55;72.88;101556.16;20713024;28;20390;-73
2022/09/04 14:52:26;;;;;;;1.60;1.00;;;;;;;19.38;72.93;101527.03;20750073;28;20057;-72
2022/09/04 15:02:32;;;;;;;;;;;;;;;19.56;73.07;101551.59;20747618;28;20068;-73
2022/09/04 15:12:34;;;;;;;;;;;;;;;19.57;73.13;101550.59;20659965;28;19945;-73
2022/09/04 15:22:38;;;;;;;1.92;1.30;;;;;;;19.55;73.25;101544.47;20659735;28;20532;-73
2022/09/04 15:32:41;;;;;;;1.65;1.20;;;;;;;19.38;73.41;101524.31;20656752;28;20054;-73
2022/09/04 15:43:25;;;;;;;3.08;1.30;;;;;;;19.49;73.29;101545.88;20642128;28;20047;-73
2022/09/04 15:53:35;;;;;;;2.75;1.15;;;;;;;19.47;73.65;101545.16;20556209;28;20064;-73
2022/09/04 16:03:58;;;;;;;14.90;4.50;;;;;;;19.47;74.47;101547.88;20638342;28;20081;-74
2022/09/04 16:14:06;;;;;;;12.57;4.93;;;;;;;19.50;76.36;101547.59;20664379;28;20077;-74
2022/09/04 16:24:17;;;;;;;9.93;3.53;;;;;;;19.52;76.85;101540.22;20645056;28;20132;-74
2022/09/04 16:34:47;;;;;;;8.27;3.67;;;;;;;19.52;76.35;101545.63;20736155;28;20411;-74
2022/09/04 16:44:59;;;;;;;6.53;2.30;;;;;;;19.52;75.88;101544.75;20713236;28;20183;-73
2022/09/04 16:55:10;;;;;;;6.95;2.50;;;;;;;19.51;75.55;101551.13;20727231;28;20060;-73
2022/09/04 17:05:33;;;;;;;7.90;3.00;;;;;;;19.50;75.63;101553.00;20734414;28;20094;-73
2022/09/04 17:15:54;;;;;;;4.97;2.35;;;;;;;19.50;75.64;101562.94;20758745;28;20054;-73
2022/09/04 17:26:00;;;;;;;5.40;2.13;;;;;;;19.34;75.74;101552.56;20790763;28;20057;-73
2022/09/04 17:36:37;;;;;;;4.28;2.00;;;;;;;19.48;75.80;101564.91;20737600;28;20133;-73
2022/09/04 17:47:07;;;;;;;4.30;2.47;;;;;;;19.46;76.08;101567.75;20732938;28;20138;-73
2022/09/04 17:57:27;;;;;;;2.97;1.90;;;;;;;19.40;76.11;101565.53;20743703;28;20128;-73
2022/09/04 18:07:36;;;;;;;3.80;1.95;;;;;;;19.44;76.20;101580.50;20700232;28;20066;-74
2022/09/04 18:18:10;;;;;;;2.53;1.77;;;;;;;19.45;76.48;101587.66;20688067;28;20053;-75
2022/09/04 18:28:17;;;;;;;2.95;1.85;;;;;;;19.22;76.68;101549.06;20721327;28;20046;-74
2022/09/04 18:38:57;;;;;;;6.25;2.30;;;;;;;19.43;77.22;101600.38;20858970;28;20159;-74
2022/09/04 18:49:12;;;;;;;5.07;2.30;;;;;;;19.40;77.18;101616.84;20874255;28;20041;-73
2022/09/04 18:59:42;;;;;;;2.95;2.28;;;;;;;19.38;77.37;101624.22;20861068;28;20390;-73
2022/09/04 19:10:04;;;;;;;3.67;1.98;;;;;;;19.37;77.34;101638.72;20858009;28;20603;-73
2022/09/04 19:20:12;;;;;;;2.90;1.90;;;;;;;19.36;77.20;101650.50;20812952;28;20601;-73
2022/09/04 19:30:20;;;;;;;3.38;1.65;;;;;;;19.34;77.33;101645.25;20631412;28;20057;-73
2022/09/04 19:40:28;;;;;;;2.65;1.67;;;;;;;19.33;77.58;101653.44;20683973;28;20471;-73
2022/09/04 19:50:53;;;;;;;2.33;1.60;;;;;;;19.32;77.31;101651.75;20787265;28;20052;-74
2022/09/04 20:01:18;;;;;;;2.85;1.85;;;;;;;19.26;77.43;101648.56;20793979;28;20092;-74
2022/09/04 20:11:54;;;;;;;2.03;1.30;;;;;;;18.76;77.39;101591.50;20805370;28;20148;-73
2022/09/04 20:22:03;;;;;;;2.15;1.90;;;;;;;19.27;77.66;101669.19;20775925;28;20061;-73
2022/09/04 20:32:24;;;;;;;2.13;1.50;;;;;;;19.27;77.52;101677.28;20721231;28;20438;-73
2022/09/04 20:42:37;;;;;;;3.05;1.50;;;;;;;19.04;77.68;101644.09;20715320;28;20417;-73
2022/09/04 20:52:49;;;;;;;1.85;1.60;;;;;;;19.25;77.74;101673.84;20715197;28;20043;-73
2022/09/04 21:03:16;;;;;;;1.85;1.65;;;;;;;19.18;77.76;101671.78;20730301;28;20137;-74
2022/09/04 21:13:41;;;;;;;1.60;1.50;;;;;;;19.25;77.57;101684.66;20665090;28;20564;-74
2022/09/04 21:23:55;;;;;;;2.35;1.60;;;;;;;19.23;77.85;101689.31;20695687;28;20045;-74
2022/09/04 21:34:32;;;;;;;1.50;1.30;;;;;;;19.23;77.65;101685.78;20718593;28;20449;-73
2022/09/04 21:45:08;;;;;;;2.03;1.50;;;;;;;19.03;77.62;101658.56;20697531;28;20045;-74
2022/09/04 21:55:34;;;;;;;1.52;1.42;;;;;;;19.22;77.89;101701.09;20708020;28;20509;-74
2022/09/04 22:06:24;;;;;;;2.03;1.55;;;;;;;19.21;77.50;101710.19;20728907;28;20077;-74
2022/09/04 22:17:04;;;;;;;1.98;1.50;;;;;;;19.21;77.71;101698.50;20725819;28;20049;-74
2022/09/04 22:27:21;;;;;;;1.90;1.60;;;;;;;19.20;77.71;101697.66;20723446;28;20049;-73
2022/09/04 22:38:00;;;;;;;2.92;1.60;;;;;;;19.20;77.78;101699.50;20806863;28;20037;-74
2022/09/04 22:48:13;;;;;;;2.42;1.67;;;;;;;19.18;77.98;101696.94;20786218;28;20061;-74
2022/09/04 22:58:33;;;;;;;1.90;1.67;;;;;;;19.19;77.84;101701.34;20712000;28;20045;-74
2022/09/04 23:08:53;;;;;;;2.63;1.60;;;;;;;19.19;77.84;101695.06;20705220;28;20129;-73
2022/09/04 23:19:32;;;;;;;1.35;1.25;;;;;;;19.06;77.97;101676.34;20704171;28;20531;-74
2022/09/04 23:30:03;;;;;;;1.70;1.50;;;;;;;19.17;77.90;101697.91;20692318;28;20495;-73
2022/09/04 23:40:18;;;;;;;1.38;1.27;;;;;;;19.16;77.86;101695.34;20733077;28;20042;-73
2022/09/04 23:50:46;;;;;;;2.67;1.60;;;;;;;19.16;78.10;101700.72;20703641;28;20097;-73
